sensor_id;sensor_type;location;lat;lon;timestamp;pressure;altitude;pressure_sealevel;temperature;humidity
6853;BME280;3465;42.144;24.722;2022-12-29T00:01:31;144260.56;;;5.35;100.00
6853;BME280;3465;42.144;24.722;2022-12-29T00:03:57;144234.41;;;5.25;100.00
6853;BME280;3465;42.144;24.722;2022-12-29T00:06:23;144250.63;;;5.31;100.00
6853;BME280;3465;42.144;24.722;2022-12-29T00:08:49;144248.09;;;5.30;100.00
6853;BME280;3465;42.144;24.722;2022-12-29T00:11:17;144221.97;;;5.20;100.00
6853;BME280;3465;42.144;24.722;2022-12-29T00:13:43;144246.88;;;5.30;100.00
6853;BME280;3465;42.144;24.722;2022-12-29T00:16:28;144239.38;;;5.27;100.00
6853;BME280;3465;42.144;24.722;2022-12-29T00:18:53;144233.16;;;5.24;100.00
6853;BME280;3465;42.144;24.722;2022-12-29T00:21:22;144216.97;;;5.18;100.00
6853;BME280;3465;42.144;24.722;2022-12-29T00:24:10;144253.09;;;5.32;100.00
6853;BME280;3465;42.144;24.722;2022-12-29T00:29:40;144233.16;;;5.24;100.00
6853;BME280;3465;42.144;24.722;2022-12-29T00:32:24;144276.78;;;5.42;100.00
6853;BME280;3465;42.144;24.722;2022-12-29T00:35:11;144284.25;;;5.45;100.00
6853;BME280;3465;42.144;24.722;2022-12-29T00:37:43;144296.72;;;5.50;100.00
6853;BME280;3465;42.144;24.722;2022-12-29T00:40:30;144284.25;;;5.45;100.00
6853;BME280;3465;42.144;24.722;2022-12-29T00:43:13;144258.09;;;5.34;100.00
6853;BME280;3465;42.144;24.722;2022-12-29T00:45:58;144284.25;;;5.45;100.00
6853;BME280;3465;42.144;24.722;2022-12-29T00:48:23;144284.25;;;5.45;100.00
6853;BME280;3465;42.144;24.722;2022-12-29T00:51:07;144271.78;;;5.40;100.00
6853;BME280;3465;42.144;24.722;2022-12-29T00:53:33;144278.03;;;5.42;100.00
6853;BME280;3465;42.144;24.722;2022-12-29T00:55:58;144271.78;;;5.40;100.00
6853;BME280;3465;42.144;24.722;2022-12-29T00:58:27;144283.00;;;5.44;100.00
6853;BME280;3465;42.144;24.722;2022-12-29T01:00:52;144278.03;;;5.42;100.00
6853;BME280;3465;42.144;24.722;2022-12-29T01:03:18;144235.63;;;5.25;100.00
6853;BME280;3465;42.144;24.722;2022-12-29T01:05:43;144264.31;;;5.37;100.00
6853;BME280;3465;42.144;24.722;2022-12-29T01:08:09;144274.31;;;5.41;100.00
6853;BME280;3465;42.144;24.722;2022-12-29T01:10:34;144296.72;;;5.50;100.00
6853;BME280;3465;42.144;24.722;2022-12-29T01:12:59;144209.50;;;5.15;100.00
6853;BME280;3465;42.144;24.722;2022-12-29T01:15:25;144300.47;;;5.51;100.00
6853;BME280;3465;42.144;24.722;2022-12-29T01:17:50;144276.78;;;5.42;100.00
6853;BME280;3465;42.144;24.722;2022-12-29T01:20:16;144299.19;;;5.51;100.00
6853;BME280;3465;42.144;24.722;2022-12-29T01:22:41;144298.00;;;5.50;100.00
6853;BME280;3465;42.144;24.722;2022-12-29T01:25:08;144291.72;;;5.48;100.00
6853;BME280;3465;42.144;24.722;2022-12-29T01:27:34;144293.00;;;5.48;100.00
6853;BME280;3465;42.144;24.722;2022-12-29T01:29:59;144279.25;;;5.43;100.00
6853;BME280;3465;42.144;24.722;2022-12-29T01:32:24;144325.41;;;5.61;100.00
6853;BME280;3465;42.144;24.722;2022-12-29T01:34:50;144309.19;;;5.55;100.00
6853;BME280;3465;42.144;24.722;2022-12-29T01:37:15;144300.47;;;5.51;100.00
6853;BME280;3465;42.144;24.722;2022-12-29T01:39:41;144289.25;;;5.47;100.00
6853;BME280;3465;42.144;24.722;2022-12-29T01:42:22;144331.63;;;5.64;100.00
6853;BME280;3465;42.144;24.722;2022-12-29T01:44:52;144321.66;;;5.60;100.00
6853;BME280;3465;42.144;24.722;2022-12-29T01:49:55;144336.63;;;5.66;100.00
6853;BME280;3465;42.144;24.722;2022-12-29T01:52:22;144349.09;;;5.71;100.00
6853;BME280;3465;42.144;24.722;2022-12-29T01:54:51;144364.03;;;5.77;100.00
6853;BME280;3465;42.144;24.722;2022-12-29T01:57:23;144385.31;;;5.86;100.00
6853;BME280;3465;42.144;24.722;2022-12-29T02:00:08;144369.03;;;5.79;100.00
6853;BME280;3465;42.144;24.722;2022-12-29T02:02:35;144364.03;;;5.77;100.00
6853;BME280;3465;42.144;24.722;2022-12-29T02:05:07;144344.09;;;5.69;100.00
6853;BME280;3465;42.144;24.722;2022-12-29T02:07:35;144346.63;;;5.70;100.00
6853;BME280;3465;42.144;24.722;2022-12-29T02:10:01;144334.13;;;5.65;100.00
6853;BME280;3465;42.144;24.722;2022-12-29T02:12:27;144321.66;;;5.60;100.00
6853;BME280;3465;42.144;24.722;2022-12-29T02:14:59;144362.78;;;5.76;100.00
6853;BME280;3465;42.144;24.722;2022-12-29T02:37:22;144334.13;;;5.65;100.00
6853;BME280;3465;42.144;24.722;2022-12-29T02:40:08;144320.41;;;5.59;100.00
6853;BME280;3465;42.144;24.722;2022-12-29T02:45:36;144288.00;;;5.46;100.00
6853;BME280;3465;42.144;24.722;2022-12-29T02:48:20;144270.56;;;5.39;100.00
6853;BME280;3465;42.144;24.722;2022-12-29T02:53:17;144210.75;;;5.15;100.00
6853;BME280;3465;42.144;24.722;2022-12-29T02:56:04;144198.28;;;5.10;100.00
6853;BME280;3465;42.144;24.722;2022-12-29T02:58:29;144198.28;;;5.10;100.00
6853;BME280;3465;42.144;24.722;2022-12-29T03:03:55;144175.81;;;5.01;100.00
6853;BME280;3465;42.144;24.722;2022-12-29T03:14:47;144117.28;;;4.78;100.00
6853;BME280;3465;42.144;24.722;2022-12-29T03:17:40;144072.44;;;4.60;100.00
6853;BME280;3465;42.144;24.722;2022-12-29T03:20:15;144055.03;;;4.53;100.00
6853;BME280;3465;42.144;24.722;2022-12-29T03:22:44;144041.31;;;4.47;100.00
6853;BME280;3465;42.144;24.722;2022-12-29T03:25:33;144035.09;;;4.45;100.00
6853;BME280;3465;42.144;24.722;2022-12-29T03:28:07;144026.38;;;4.41;100.00
6853;BME280;3465;42.144;24.722;2022-12-29T03:30:35;144005.19;;;4.32;100.00
6853;BME280;3465;42.144;24.722;2022-12-29T03:33:04;144031.38;;;4.43;100.00
6853;BME280;3465;42.144;24.722;2022-12-29T03:35:32;143975.31;;;4.20;100.00
6853;BME280;3465;42.144;24.722;2022-12-29T03:38:23;143985.25;;;4.24;100.00
6853;BME280;3465;42.144;24.722;2022-12-29T03:40:56;143989.00;;;4.26;100.00
6853;BME280;3465;42.144;24.722;2022-12-29T03:43:23;143970.34;;;4.18;100.00
6853;BME280;3465;42.144;24.722;2022-12-29T03:45:49;143928.03;;;4.01;100.00
6853;BME280;3465;42.144;24.722;2022-12-29T03:48:14;143936.69;;;4.05;100.00
6853;BME280;3465;42.144;24.722;2022-12-29T03:50:40;143929.25;;;4.02;100.00
6853;BME280;3465;42.144;24.722;2022-12-29T03:53:05;143926.78;;;4.01;100.00
6853;BME280;3465;42.144;24.722;2022-12-29T03:55:34;143924.25;;;4.00;100.00
6853;BME280;3465;42.144;24.722;2022-12-29T03:57:59;143910.59;;;3.94;100.00
6853;BME280;3465;42.144;24.722;2022-12-29T04:00:25;143910.59;;;3.94;100.00
6853;BME280;3465;42.144;24.722;2022-12-29T04:02:50;143918.03;;;3.97;100.00
6853;BME280;3465;42.144;24.722;2022-12-29T04:05:15;143881.94;;;3.83;100.00
6853;BME280;3465;42.144;24.722;2022-12-29T04:07:41;143893.13;;;3.87;100.00
6853;BME280;3465;42.144;24.722;2022-12-29T04:10:06;143867.03;;;3.77;100.00
6853;BME280;3465;42.144;24.722;2022-12-29T04:12:34;143885.69;;;3.84;100.00
6853;BME280;3465;42.144;24.722;2022-12-29T04:15:00;143860.78;;;3.74;100.00
6853;BME280;3465;42.144;24.722;2022-12-29T04:17:25;143858.31;;;3.73;100.00
6853;BME280;3465;42.144;24.722;2022-12-29T04:19:51;143830.94;;;3.62;100.00
6853;BME280;3465;42.144;24.722;2022-12-29T04:22:16;143718.97;;;3.17;100.00
6853;BME280;3465;42.144;24.722;2022-12-29T04:24:42;143872.00;;;3.79;100.00
6853;BME280;3465;42.144;24.722;2022-12-29T04:27:07;143838.41;;;3.65;100.00
6853;BME280;3465;42.144;24.722;2022-12-29T04:29:32;143830.94;;;3.62;100.00
6853;BME280;3465;42.144;24.722;2022-12-29T04:31:58;143853.31;;;3.71;100.00
6853;BME280;3465;42.144;24.722;2022-12-29T04:34:23;143852.09;;;3.71;100.00
6853;BME280;3465;42.144;24.722;2022-12-29T04:36:48;143828.47;;;3.61;100.00
6853;BME280;3465;42.144;24.722;2022-12-29T04:39:14;143827.19;;;3.61;100.00
6853;BME280;3465;42.144;24.722;2022-12-29T04:41:39;143828.47;;;3.61;100.00
6853;BME280;3465;42.144;24.722;2022-12-29T04:44:05;143818.50;;;3.57;100.00
6853;BME280;3465;42.144;24.722;2022-12-29T04:46:30;143801.03;;;3.50;100.00
6853;BME280;3465;42.144;24.722;2022-12-29T04:48:56;143789.84;;;3.46;100.00
6853;BME280;3465;42.144;24.722;2022-12-29T04:51:21;143819.75;;;3.58;100.00
6853;BME280;3465;42.144;24.722;2022-12-29T04:53:46;143809.75;;;3.54;100.00
6853;BME280;3465;42.144;24.722;2022-12-29T04:56:12;143783.66;;;3.43;100.00
6853;BME280;3465;42.144;24.722;2022-12-29T04:58:37;143738.84;;;3.25;100.00
6853;BME280;3465;42.144;24.722;2022-12-29T05:01:02;143752.56;;;3.31;100.00
6853;BME280;3465;42.144;24.722;2022-12-29T05:03:28;143753.78;;;3.31;100.00
6853;BME280;3465;42.144;24.722;2022-12-29T05:05:54;143751.31;;;3.30;100.00
6853;BME280;3465;42.144;24.722;2022-12-29T05:08:20;143736.38;;;3.24;100.00
6853;BME280;3465;42.144;24.722;2022-12-29T05:10:46;143748.84;;;3.29;100.00
6853;BME280;3465;42.144;24.722;2022-12-29T05:13:11;143751.31;;;3.30;100.00
6853;BME280;3465;42.144;24.722;2022-12-29T05:15:37;143726.41;;;3.20;100.00
6853;BME280;3465;42.144;24.722;2022-12-29T05:18:15;143737.59;;;3.25;100.00
6853;BME280;3465;42.144;24.722;2022-12-29T05:20:40;143721.44;;;3.18;100.00
6853;BME280;3465;42.144;24.722;2022-12-29T05:23:06;143707.78;;;3.13;100.00
6853;BME280;3465;42.144;24.722;2022-12-29T05:25:31;143691.59;;;3.06;100.00
6853;BME280;3465;42.144;24.722;2022-12-29T05:27:57;143692.84;;;3.07;100.00
6853;BME280;3465;42.144;24.722;2022-12-29T05:30:22;143659.25;;;2.93;100.00
6853;BME280;3465;42.144;24.722;2022-12-29T05:32:47;143690.34;;;3.06;100.00
6853;BME280;3465;42.144;24.722;2022-12-29T05:35:13;143706.50;;;3.12;100.00
6853;BME280;3465;42.144;24.722;2022-12-29T05:37:38;143692.84;;;3.07;100.00
6853;BME280;3465;42.144;24.722;2022-12-29T05:40:04;143690.34;;;3.06;100.00
6853;BME280;3465;42.144;24.722;2022-12-29T05:42:30;143701.53;;;3.10;100.00
6853;BME280;3465;42.144;24.722;2022-12-29T05:44:55;143707.78;;;3.13;100.00
6853;BME280;3465;42.144;24.722;2022-12-29T05:47:20;143709.03;;;3.13;100.00
6853;BME280;3465;42.144;24.722;2022-12-29T05:49:46;143692.84;;;3.07;100.00
6853;BME280;3465;42.144;24.722;2022-12-29T05:52:42;143699.06;;;3.09;100.00
6853;BME280;3465;42.144;24.722;2022-12-29T05:55:08;143702.78;;;3.11;100.00
6853;BME280;3465;42.144;24.722;2022-12-29T05:57:36;143690.34;;;3.06;100.00
6853;BME280;3465;42.144;24.722;2022-12-29T06:00:04;143680.41;;;3.02;100.00
6853;BME280;3465;42.144;24.722;2022-12-29T06:02:30;143691.59;;;3.06;100.00
6853;BME280;3465;42.144;24.722;2022-12-29T06:04:55;143675.44;;;3.00;100.00
6853;BME280;3465;42.144;24.722;2022-12-29T06:07:20;143559.78;;;2.53;100.00
6853;BME280;3465;42.144;24.722;2022-12-29T06:09:46;143671.69;;;2.98;100.00
6853;BME280;3465;42.144;24.722;2022-12-29T06:12:11;143692.84;;;3.07;100.00
6853;BME280;3465;42.144;24.722;2022-12-29T06:14:37;143686.63;;;3.04;100.00
6853;BME280;3465;42.144;24.722;2022-12-29T06:17:02;143687.88;;;3.05;100.00
6853;BME280;3465;42.144;24.722;2022-12-29T06:19:27;143699.06;;;3.09;100.00
6853;BME280;3465;42.144;24.722;2022-12-29T06:21:53;143713.97;;;3.15;100.00
6853;BME280;3465;42.144;24.722;2022-12-29T06:24:19;143720.22;;;3.18;100.00
6853;BME280;3465;42.144;24.722;2022-12-29T06:26:44;143697.81;;;3.09;100.00
6853;BME280;3465;42.144;24.722;2022-12-29T06:29:10;143704.03;;;3.11;100.00
6853;BME280;3465;42.144;24.722;2022-12-29T06:31:35;143702.78;;;3.11;100.00
6853;BME280;3465;42.144;24.722;2022-12-29T06:34:00;143732.66;;;3.23;100.00
6853;BME280;3465;42.144;24.722;2022-12-29T06:36:26;143722.69;;;3.19;100.00
6853;BME280;3465;42.144;24.722;2022-12-29T06:38:51;143696.59;;;3.08;100.00
6853;BME280;3465;42.144;24.722;2022-12-29T06:41:19;143746.31;;;3.28;100.00
6853;BME280;3465;42.144;24.722;2022-12-29T06:43:47;143740.13;;;3.26;100.00
6853;BME280;3465;42.144;24.722;2022-12-29T06:46:12;143769.94;;;3.38;100.00
6853;BME280;3465;42.144;24.722;2022-12-29T06:48:38;143797.31;;;3.49;100.00
6853;BME280;3465;42.144;24.722;2022-12-29T06:51:03;143808.56;;;3.53;100.00
6853;BME280;3465;42.144;24.722;2022-12-29T06:53:29;143819.75;;;3.58;100.00
6853;BME280;3465;42.144;24.722;2022-12-29T06:55:54;143793.59;;;3.47;100.00
6853;BME280;3465;42.144;24.722;2022-12-29T06:58:21;143829.69;;;3.62;100.00
6853;BME280;3465;42.144;24.722;2022-12-29T07:00:47;143864.50;;;3.76;100.00
6853;BME280;3465;42.144;24.722;2022-12-29T07:03:12;143893.13;;;3.87;100.00
6853;BME280;3465;42.144;24.722;2022-12-29T07:05:38;143889.41;;;3.86;100.00
6853;BME280;3465;42.144;24.722;2022-12-29T07:08:03;143915.56;;;3.96;100.00
6853;BME280;3465;42.144;24.722;2022-12-29T07:10:29;143914.31;;;3.96;100.00
6853;BME280;3465;42.144;24.722;2022-12-29T07:12:54;143931.75;;;4.03;100.00
6853;BME280;3465;42.144;24.722;2022-12-29T07:15:20;143932.97;;;4.03;100.00
6853;BME280;3465;42.144;24.722;2022-12-29T07:17:45;143949.16;;;4.10;100.00
6853;BME280;3465;42.144;24.722;2022-12-29T07:20:11;144016.38;;;4.37;100.00
6853;BME280;3465;42.144;24.722;2022-12-29T07:22:36;144052.50;;;4.52;100.00
6853;BME280;3465;42.144;24.722;2022-12-29T07:25:01;144128.50;;;4.82;100.00
6853;BME280;3465;42.144;24.722;2022-12-29T07:27:28;144244.38;;;5.29;100.00
6853;BME280;3465;42.144;24.722;2022-12-29T07:29:53;144109.81;;;4.75;100.00
6853;BME280;3465;42.144;24.722;2022-12-29T07:32:19;144423.94;;;6.01;100.00
6853;BME280;3465;42.144;24.722;2022-12-29T07:34:44;144437.69;;;6.07;100.00
6853;BME280;3465;42.144;24.722;2022-12-29T07:37:13;144461.38;;;6.16;100.00
6853;BME280;3465;42.144;24.722;2022-12-29T07:39:39;144486.34;;;6.26;100.00
6853;BME280;3465;42.144;24.722;2022-12-29T07:42:05;144518.75;;;6.39;100.00
6853;BME280;3465;42.144;24.722;2022-12-29T07:44:30;144553.69;;;6.53;100.00
6853;BME280;3465;42.144;24.722;2022-12-29T07:46:56;144574.88;;;6.62;100.00
6853;BME280;3465;42.144;24.722;2022-12-29T07:49:21;144579.88;;;6.64;100.00
6853;BME280;3465;42.144;24.722;2022-12-29T07:51:47;144559.91;;;6.56;100.00
6853;BME280;3465;42.144;24.722;2022-12-29T07:54:12;144583.63;;;6.65;100.00
6853;BME280;3465;42.144;24.722;2022-12-29T07:56:38;144559.91;;;6.56;100.00
6853;BME280;3465;42.144;24.722;2022-12-29T07:59:03;144566.19;;;6.58;100.00
6853;BME280;3465;42.144;24.722;2022-12-29T08:01:29;144542.44;;;6.49;100.00
6853;BME280;3465;42.144;24.722;2022-12-29T08:03:57;144573.66;;;6.61;100.00
6853;BME280;3465;42.144;24.722;2022-12-29T08:06:22;144569.94;;;6.60;100.00
6853;BME280;3465;42.144;24.722;2022-12-29T08:08:48;144566.19;;;6.58;100.00
6853;BME280;3465;42.144;24.722;2022-12-29T08:11:13;144579.88;;;6.64;100.00
6853;BME280;3465;42.144;24.722;2022-12-29T08:13:38;144543.69;;;6.49;100.00
6853;BME280;3465;42.144;24.722;2022-12-29T08:16:04;144552.44;;;6.53;100.00
6853;BME280;3465;42.144;24.722;2022-12-29T08:18:29;144596.13;;;6.70;100.00
6853;BME280;3465;42.144;24.722;2022-12-29T08:20:55;144571.16;;;6.60;100.00
6853;BME280;3465;42.144;24.722;2022-12-29T08:23:20;144576.16;;;6.62;100.00
6853;BME280;3465;42.144;24.722;2022-12-29T08:25:46;144557.44;;;6.55;100.00
6853;BME280;3465;42.144;24.722;2022-12-29T08:28:11;144414.00;;;5.97;100.00
6853;BME280;3465;42.144;24.722;2022-12-29T08:30:36;144427.69;;;6.03;100.00
6853;BME280;3465;42.144;24.722;2022-12-29T08:33:02;144374.03;;;5.81;100.00
6853;BME280;3465;42.144;24.722;2022-12-29T08:35:27;144369.03;;;5.79;100.00
6853;BME280;3465;42.144;24.722;2022-12-29T08:37:53;144375.25;;;5.81;100.00
6853;BME280;3465;42.144;24.722;2022-12-29T08:40:18;144361.56;;;5.76;100.00
6853;BME280;3465;42.144;24.722;2022-12-29T08:42:43;144357.81;;;5.74;100.00
6853;BME280;3465;42.144;24.722;2022-12-29T08:45:09;144386.56;;;5.86;100.00
6853;BME280;3465;42.144;24.722;2022-12-29T08:47:34;144331.63;;;5.64;100.00
6853;BME280;3465;42.144;24.722;2022-12-29T08:50:03;144326.66;;;5.62;100.00
6853;BME280;3465;42.144;24.722;2022-12-29T08:52:29;144366.56;;;5.78;100.00
6853;BME280;3465;42.144;24.722;2022-12-29T08:54:54;144381.56;;;5.84;100.00
6853;BME280;3465;42.144;24.722;2022-12-29T08:57:19;144399.00;;;5.91;100.00
6853;BME280;3465;42.144;24.722;2022-12-29T08:59:45;144414.00;;;5.97;100.00
6853;BME280;3465;42.144;24.722;2022-12-29T09:02:11;144481.34;;;6.24;100.00
6853;BME280;3465;42.144;24.722;2022-12-29T09:04:37;144481.34;;;6.24;100.00
6853;BME280;3465;42.144;24.722;2022-12-29T09:07:02;144478.81;;;6.23;100.00
6853;BME280;3465;42.144;24.722;2022-12-29T09:09:27;144486.34;;;6.26;100.00
6853;BME280;3465;42.144;24.722;2022-12-29T09:11:53;144495.03;;;6.30;100.00
6853;BME280;3465;42.144;24.722;2022-12-29T09:14:18;144516.25;;;6.38;100.00
6853;BME280;3465;42.144;24.722;2022-12-29T09:16:44;144559.91;;;6.56;100.00
6853;BME280;3465;42.144;24.722;2022-12-29T09:19:28;144546.22;;;6.50;100.00
6853;BME280;3465;42.144;24.722;2022-12-29T09:21:53;144482.56;;;6.25;100.00
6853;BME280;3465;42.144;24.722;2022-12-29T09:24:19;144558.66;;;6.55;100.00
6853;BME280;3465;42.144;24.722;2022-12-29T09:26:44;144559.91;;;6.56;100.00
6853;BME280;3465;42.144;24.722;2022-12-29T09:29:10;144587.38;;;6.67;100.00
6853;BME280;3465;42.144;24.722;2022-12-29T09:31:35;144548.69;;;6.51;100.00
6853;BME280;3465;42.144;24.722;2022-12-29T09:34:00;144594.84;;;6.70;100.00
6853;BME280;3465;42.144;24.722;2022-12-29T09:36:26;144603.59;;;6.73;100.00
6853;BME280;3465;42.144;24.722;2022-12-29T09:38:53;144631.03;;;6.84;100.00
6853;BME280;3465;42.144;24.722;2022-12-29T09:41:49;144633.56;;;6.85;100.00
6853;BME280;3465;42.144;24.722;2022-12-29T09:47:09;144642.28;;;6.89;100.00
6853;BME280;3465;42.144;24.722;2022-12-29T09:49:43;144651.00;;;6.92;100.00
6853;BME280;3465;42.144;24.722;2022-12-29T09:52:25;144662.25;;;6.97;100.00
6853;BME280;3465;42.144;24.722;2022-12-29T09:55:04;144687.22;;;7.07;100.00
6853;BME280;3465;42.144;24.722;2022-12-29T09:57:45;144718.41;;;7.19;100.00
6853;BME280;3465;42.144;24.722;2022-12-29T10:00:22;144757.16;;;7.35;100.00
6853;BME280;3465;42.144;24.722;2022-12-29T10:06:00;144787.09;;;7.47;100.00
6853;BME280;3465;42.144;24.722;2022-12-29T10:16:27;144837.09;;;7.67;100.00
6853;BME280;3465;42.144;24.722;2022-12-29T10:24:18;144869.56;;;7.80;100.00
6853;BME280;3465;42.144;24.722;2022-12-29T10:26:46;144869.56;;;7.80;100.00
6853;BME280;3465;42.144;24.722;2022-12-29T10:29:22;144863.28;;;7.78;100.00
6853;BME280;3465;42.144;24.722;2022-12-29T10:34:50;144908.28;;;7.96;100.00
6853;BME280;3465;42.144;24.722;2022-12-29T10:39:58;144970.75;;;8.21;100.00
6853;BME280;3465;42.144;24.722;2022-12-29T10:42:36;145158.28;;;8.96;100.00
6853;BME280;3465;42.144;24.722;2022-12-29T10:45:08;145366.00;;;9.79;100.00
6853;BME280;3465;42.144;24.722;2022-12-29T10:47:52;145656.50;;;10.96;100.00
6853;BME280;3465;42.144;24.722;2022-12-29T10:50:19;145872.09;;;11.82;100.00
6853;BME280;3465;42.144;24.722;2022-12-29T10:52:46;145964.88;;;12.19;100.00
6853;BME280;3465;42.144;24.722;2022-12-29T10:55:19;146043.88;;;12.51;100.00
6853;BME280;3465;42.144;24.722;2022-12-29T10:57:48;146130.47;;;12.85;100.00
6853;BME280;3465;42.144;24.722;2022-12-29T11:00:20;146302.47;;;13.54;98.33
6853;BME280;3465;42.144;24.722;2022-12-29T11:06:11;146663.06;;;14.98;91.28
6853;BME280;3465;42.144;24.722;2022-12-29T11:08:50;146741.03;;;15.29;86.16
6853;BME280;3465;42.144;24.722;2022-12-29T11:11:24;146705.84;;;15.15;85.58
6853;BME280;3465;42.144;24.722;2022-12-29T11:14:02;146617.84;;;14.80;85.78
6853;BME280;3465;42.144;24.722;2022-12-29T11:16:32;146605.28;;;14.75;84.21
6853;BME280;3465;42.144;24.722;2022-12-29T11:19:00;146472.03;;;14.22;86.52
6853;BME280;3465;42.144;24.722;2022-12-29T11:24:03;146096.56;;;12.72;92.27
6853;BME280;3465;42.144;24.722;2022-12-29T11:26:30;145959.84;;;12.17;95.34
6853;BME280;3465;42.144;24.722;2022-12-29T11:29:25;145864.56;;;11.79;97.47
6853;BME280;3465;42.144;24.722;2022-12-29T11:31:53;145813.13;;;11.58;98.99
6853;BME280;3465;42.144;24.722;2022-12-29T11:34:30;145730.44;;;11.25;100.00
6853;BME280;3465;42.144;24.722;2022-12-29T11:37:18;145762.97;;;11.38;100.00
6853;BME280;3465;42.144;24.722;2022-12-29T11:42:39;145712.88;;;11.18;100.00
6853;BME280;3465;42.144;24.722;2022-12-29T11:45:18;145612.66;;;10.78;100.00
6853;BME280;3465;42.144;24.722;2022-12-29T11:47:47;145630.22;;;10.85;100.00
6853;BME280;3465;42.144;24.722;2022-12-29T11:50:21;145532.50;;;10.46;100.00
6853;BME280;3465;42.144;24.722;2022-12-29T11:52:50;145447.38;;;10.12;100.00
6853;BME280;3465;42.144;24.722;2022-12-29T11:55:24;145446.16;;;10.12;100.00
6853;BME280;3465;42.144;24.722;2022-12-29T11:57:51;145464.91;;;10.19;100.00
6853;BME280;3465;42.144;24.722;2022-12-29T12:00:25;145463.66;;;10.19;100.00
6853;BME280;3465;42.144;24.722;2022-12-29T12:03:23;145538.75;;;10.49;100.00
6853;BME280;3465;42.144;24.722;2022-12-29T12:06:00;145545.03;;;10.51;100.00
6853;BME280;3465;42.144;24.722;2022-12-29T12:08:36;145586.38;;;10.68;100.00
6853;BME280;3465;42.144;24.722;2022-12-29T12:11:11;145600.13;;;10.73;100.00
6853;BME280;3465;42.144;24.722;2022-12-29T12:14:02;145523.75;;;10.43;100.00
6853;BME280;3465;42.144;24.722;2022-12-29T12:16:37;145603.88;;;10.75;100.00
6853;BME280;3465;42.144;24.722;2022-12-29T12:19:22;145568.81;;;10.61;100.00
6853;BME280;3465;42.144;24.722;2022-12-29T12:22:00;145563.81;;;10.59;100.00
6853;BME280;3465;42.144;24.722;2022-12-29T12:24:52;145622.66;;;10.82;100.00
6853;BME280;3465;42.144;24.722;2022-12-29T12:27:30;145669.03;;;11.01;100.00
6853;BME280;3465;42.144;24.722;2022-12-29T12:30:04;145730.44;;;11.25;100.00
6853;BME280;3465;42.144;24.722;2022-12-29T12:33:04;145730.44;;;11.25;100.00
6853;BME280;3465;42.144;24.722;2022-12-29T12:36:04;145724.16;;;11.23;100.00
6853;BME280;3465;42.144;24.722;2022-12-29T12:38:39;145729.19;;;11.25;100.00
6853;BME280;3465;42.144;24.722;2022-12-29T12:44:38;145711.63;;;11.18;100.00
6853;BME280;3465;42.144;24.722;2022-12-29T12:55:43;145628.94;;;10.85;100.00
6853;BME280;3465;42.144;24.722;2022-12-29T12:58:31;145631.44;;;10.86;100.00
6853;BME280;3465;42.144;24.722;2022-12-29T13:20:28;145503.69;;;10.35;100.00
6853;BME280;3465;42.144;24.722;2022-12-29T13:23:13;145518.72;;;10.41;100.00
6853;BME280;3465;42.144;24.722;2022-12-29T13:26:20;145503.69;;;10.35;100.00
6853;BME280;3465;42.144;24.722;2022-12-29T13:36:44;145443.59;;;10.10;100.00
6853;BME280;3465;42.144;24.722;2022-12-29T13:42:02;145446.16;;;10.12;100.00
6853;BME280;3465;42.144;24.722;2022-12-29T13:44:35;145423.53;;;10.02;100.00
6853;BME280;3465;42.144;24.722;2022-12-29T13:50:14;145458.63;;;10.17;100.00
6853;BME280;3465;42.144;24.722;2022-12-29T13:55:29;145452.38;;;10.14;100.00
6853;BME280;3465;42.144;24.722;2022-12-29T13:58:12;145437.38;;;10.08;100.00
6853;BME280;3465;42.144;24.722;2022-12-29T14:01:02;145428.56;;;10.04;100.00
6853;BME280;3465;42.144;24.722;2022-12-29T14:03:54;145383.50;;;9.86;100.00
6853;BME280;3465;42.144;24.722;2022-12-29T14:06:33;145391.00;;;9.89;100.00
6853;BME280;3465;42.144;24.722;2022-12-29T14:09:28;145396.00;;;9.91;100.00
6853;BME280;3465;42.144;24.722;2022-12-29T14:11:52;145362.19;;;9.78;100.00
6853;BME280;3465;42.144;24.722;2022-12-29T14:14:19;145381.00;;;9.85;100.00
6853;BME280;3465;42.144;24.722;2022-12-29T14:16:46;145363.47;;;9.78;100.00
6853;BME280;3465;42.144;24.722;2022-12-29T14:21:38;145364.72;;;9.79;100.00
6853;BME280;3465;42.144;24.722;2022-12-29T14:26:51;145359.72;;;9.77;100.00
6853;BME280;3465;42.144;24.722;2022-12-29T14:31:54;145335.94;;;9.67;100.00
6853;BME280;3465;42.144;24.722;2022-12-29T14:37:00;145289.66;;;9.49;100.00
6853;BME280;3465;42.144;24.722;2022-12-29T14:42:11;145264.63;;;9.39;100.00
6853;BME280;3465;42.144;24.722;2022-12-29T14:45:05;145257.13;;;9.36;100.00
6853;BME280;3465;42.144;24.722;2022-12-29T14:53:00;145197.09;;;9.12;100.00
6853;BME280;3465;42.144;24.722;2022-12-29T14:55:41;145153.31;;;8.94;100.00
6853;BME280;3465;42.144;24.722;2022-12-29T15:00:45;145095.78;;;8.71;100.00
6853;BME280;3465;42.144;24.722;2022-12-29T15:05:58;145073.31;;;8.62;100.00
6853;BME280;3465;42.144;24.722;2022-12-29T15:08:32;145058.28;;;8.56;100.00
6853;BME280;3465;42.144;24.722;2022-12-29T15:11:22;145005.81;;;8.35;100.00
6853;BME280;3465;42.144;24.722;2022-12-29T15:13:48;145002.03;;;8.33;100.00
6853;BME280;3465;42.144;24.722;2022-12-29T15:16:31;145018.28;;;8.40;100.00
6853;BME280;3465;42.144;24.722;2022-12-29T15:18:58;145009.56;;;8.36;100.00
6853;BME280;3465;42.144;24.722;2022-12-29T15:21:34;145005.81;;;8.35;100.00
6853;BME280;3465;42.144;24.722;2022-12-29T15:24:02;144993.31;;;8.30;100.00
6853;BME280;3465;42.144;24.722;2022-12-29T15:26:39;144982.03;;;8.25;100.00
6853;BME280;3465;42.144;24.722;2022-12-29T15:29:05;144969.53;;;8.20;100.00
6853;BME280;3465;42.144;24.722;2022-12-29T15:31:50;144937.03;;;8.07;100.00
6853;BME280;3465;42.144;24.722;2022-12-29T15:34:20;144923.25;;;8.02;100.00
6853;BME280;3465;42.144;24.722;2022-12-29T15:36:49;144900.78;;;7.93;100.00
6853;BME280;3465;42.144;24.722;2022-12-29T15:39:34;144919.53;;;8.00;100.00
6853;BME280;3465;42.144;24.722;2022-12-29T15:42:06;144868.31;;;7.80;100.00
6853;BME280;3465;42.144;24.722;2022-12-29T15:44:39;144889.56;;;7.88;100.00